Time;durP1;ratioP1;P1;durP2;ratioP2;P2;SDS_P1;SDS_P2;PMS_P1;PMS_P2;Temp;Humidity;BMP_temperature;BMP_pressure;BME280_temperature;BME280_humidity;BME280_pressure;Samples;Min_cycle;Max_cycle;Signal;HPM_P1;HPM_P2
2023/09/09 00:01:58;;;;;;;0.60;0.60;;;;;;;;;;10328851;28;20757;-77
2023/09/09 00:07:02;;;;;;;0.32;0.32;;;;;;;;;;10296156;28;20233;-77
2023/09/09 00:12:04;;;;;;;0.30;0.30;;;;;;;;;;10314353;28;20216;-79
2023/09/09 00:17:05;;;;;;;0.20;0.20;;;;;;;;;;10296620;28;20231;-79
2023/09/09 00:22:06;;;;;;;0.25;0.25;;;;;;;;;;10312342;28;20208;-77
2023/09/09 00:27:07;;;;;;;0.08;0.08;;;;;;;;;;10306510;28;20238;-78
2023/09/09 00:32:08;;;;;;;0.88;0.68;;;;;;;;;;10312461;28;20216;-77
2023/09/09 00:37:09;;;;;;;0.90;0.22;;;;;;;;;;10288775;28;20865;-77
2023/09/09 00:42:10;;;;;;;1.65;1.02;;;;;;;;;;10310745;28;20239;-78
2023/09/09 00:47:11;;;;;;;1.65;0.75;;;;;;;;;;10325227;28;20335;-78
2023/09/09 00:52:12;;;;;;;0.65;0.57;;;;;;;;;;10323677;28;20246;-78
2023/09/09 00:57:13;;;;;;;0.98;0.75;;;;;;;;;;10313999;28;20243;-76
2023/09/09 01:02:15;;;;;;;0.95;0.90;;;;;;;;;;10292833;28;20217;-77
2023/09/09 01:07:16;;;;;;;3.58;0.57;;;;;;;;;;10296516;28;20232;-78
2023/09/09 01:12:17;;;;;;;0.75;0.75;;;;;;;;;;10310163;28;20242;-77
2023/09/09 01:17:18;;;;;;;0.77;0.77;;;;;;;;;;10309894;28;20227;-77
2023/09/09 01:22:19;;;;;;;0.30;0.30;;;;;;;;;;10293854;28;20267;-77
2023/09/09 01:27:20;;;;;;;0.80;0.80;;;;;;;;;;10310085;28;20833;-78
2023/09/09 01:32:21;;;;;;;0.47;0.47;;;;;;;;;;10306431;28;20217;-77
2023/09/09 01:37:22;;;;;;;0.70;0.70;;;;;;;;;;10308550;28;20216;-77
2023/09/09 01:42:23;;;;;;;1.00;0.40;;;;;;;;;;10300376;28;20216;-77
2023/09/09 01:47:24;;;;;;;0.30;0.30;;;;;;;;;;10318750;28;20220;-77
2023/09/09 01:52:26;;;;;;;0.88;0.88;;;;;;;;;;10307827;28;20208;-77
2023/09/09 01:57:29;;;;;;;0.73;0.73;;;;;;;;;;10334826;28;20219;-79
2023/09/09 02:02:30;;;;;;;0.17;0.17;;;;;;;;;;10322580;28;20239;-77
2023/09/09 02:07:31;;;;;;;0.25;0.25;;;;;;;;;;10331939;28;20312;-77
2023/09/09 02:12:32;;;;;;;0.60;0.60;;;;;;;;;;10318643;28;20719;-77
2023/09/09 02:17:34;;;;;;;0.45;0.45;;;;;;;;;;10305313;28;20223;-78
2023/09/09 02:22:35;;;;;;;0.55;0.40;;;;;;;;;;10316130;28;20300;-78
2023/09/09 02:27:36;;;;;;;0.98;0.43;;;;;;;;;;10318080;28;20319;-77
2023/09/09 02:32:38;;;;;;;0.77;0.77;;;;;;;;;;10310039;28;20320;-78
2023/09/09 02:37:39;;;;;;;0.20;0.20;;;;;;;;;;10319468;28;20221;-77
2023/09/09 02:42:40;;;;;;;2.80;0.80;;;;;;;;;;10290195;28;20211;-78
2023/09/09 02:47:42;;;;;;;0.20;0.20;;;;;;;;;;10324982;28;20247;-76
2023/09/09 02:52:43;;;;;;;0.85;0.60;;;;;;;;;;10299152;28;20220;-76
2023/09/09 02:57:50;;;;;;;1.00;0.98;;;;;;;;;;10303634;28;20280;-77
2023/09/09 03:02:52;;;;;;;2.30;0.73;;;;;;;;;;10284094;28;20263;-77
2023/09/09 03:07:53;;;;;;;0.22;0.22;;;;;;;;;;10315435;28;20260;-76
2023/09/09 03:12:56;;;;;;;0.40;0.40;;;;;;;;;;10311842;28;20212;-78
2023/09/09 03:17:57;;;;;;;2.05;1.63;;;;;;;;;;10308263;28;20445;-77
2023/09/09 03:22:59;;;;;;;0.85;0.85;;;;;;;;;;10296746;28;20227;-77
2023/09/09 03:28:00;;;;;;;0.57;0.57;;;;;;;;;;10307507;28;20212;-76
2023/09/09 03:33:01;;;;;;;0.35;0.35;;;;;;;;;;10306871;28;20213;-77
2023/09/09 03:38:03;;;;;;;1.38;1.27;;;;;;;;;;10307389;28;20331;-77
2023/09/09 03:43:04;;;;;;;0.68;0.68;;;;;;;;;;10311041;28;20205;-76
2023/09/09 03:48:05;;;;;;;1.38;0.20;;;;;;;;;;10326544;28;20273;-76
2023/09/09 03:53:06;;;;;;;1.10;0.52;;;;;;;;;;10287868;28;20238;-77
2023/09/09 03:58:07;;;;;;;0.17;0.17;;;;;;;;;;10288890;28;20208;-77
2023/09/09 04:03:08;;;;;;;0.68;0.60;;;;;;;;;;10292242;28;20275;-76
2023/09/09 04:08:12;;;;;;;2.15;1.25;;;;;;;;;;10293225;28;20755;-75
2023/09/09 04:13:13;;;;;;;0.30;0.30;;;;;;;;;;10285847;28;20307;-77
2023/09/09 04:18:14;;;;;;;0.50;0.50;;;;;;;;;;10293480;28;21718;-77
2023/09/09 04:23:16;;;;;;;0.60;0.60;;;;;;;;;;10313090;28;20772;-76
2023/09/09 04:28:17;;;;;;;0.52;0.52;;;;;;;;;;10322842;28;20235;-77
2023/09/09 04:33:19;;;;;;;1.05;1.05;;;;;;;;;;10310587;28;20212;-76
2023/09/09 04:38:23;;;;;;;1.73;0.75;;;;;;;;;;10290023;28;20275;-78
2023/09/09 04:43:24;;;;;;;0.80;0.22;;;;;;;;;;10304188;28;20205;-76
2023/09/09 04:48:26;;;;;;;0.52;0.52;;;;;;;;;;10303142;28;20217;-77
2023/09/09 04:53:27;;;;;;;1.20;0.57;;;;;;;;;;10289999;28;20224;-78
2023/09/09 04:58:28;;;;;;;0.73;0.73;;;;;;;;;;10318282;28;20255;-77
2023/09/09 05:03:30;;;;;;;7.78;0.47;;;;;;;;;;10306161;28;20629;-76
2023/09/09 05:08:31;;;;;;;0.50;0.50;;;;;;;;;;10287829;28;20231;-77
2023/09/09 05:13:32;;;;;;;0.40;0.40;;;;;;;;;;10279317;28;21253;-76
2023/09/09 05:18:34;;;;;;;0.98;0.98;;;;;;;;;;10303418;28;20225;-77
2023/09/09 05:23:36;;;;;;;1.23;1.20;;;;;;;;;;10299411;28;20208;-78
2023/09/09 05:28:37;;;;;;;0.30;0.30;;;;;;;;;;10307016;28;20215;-76
2023/09/09 05:33:38;;;;;;;0.55;0.55;;;;;;;;;;10305884;28;20224;-77
2023/09/09 05:38:39;;;;;;;1.75;1.65;;;;;;;;;;10305617;28;20759;-77
2023/09/09 05:43:41;;;;;;;1.35;1.25;;;;;;;;;;10297498;28;20224;-78
2023/09/09 05:48:42;;;;;;;1.40;1.40;;;;;;;;;;10286793;28;20216;-76
2023/09/09 05:53:44;;;;;;;0.75;0.75;;;;;;;;;;10296057;28;20208;-77
2023/09/09 05:58:45;;;;;;;0.47;0.47;;;;;;;;;;10285697;28;20223;-76
2023/09/09 06:03:47;;;;;;;0.45;0.45;;;;;;;;;;10294117;28;20870;-76
2023/09/09 06:08:48;;;;;;;0.70;0.70;;;;;;;;;;10287401;28;20778;-76
2023/09/09 06:13:49;;;;;;;0.20;0.17;;;;;;;;;;10288954;28;20319;-76
2023/09/09 06:18:51;;;;;;;2.70;0.82;;;;;;;;;;10298468;28;20208;-76
2023/09/09 06:23:52;;;;;;;0.80;0.80;;;;;;;;;;10297676;28;20232;-76
2023/09/09 06:28:53;;;;;;;1.30;1.30;;;;;;;;;;10313681;28;20703;-76
2023/09/09 06:33:54;;;;;;;0.20;0.20;;;;;;;;;;10306519;28;20273;-77
2023/09/09 06:38:56;;;;;;;2.65;1.27;;;;;;;;;;10289012;28;20228;-77
2023/09/09 06:43:57;;;;;;;1.30;0.47;;;;;;;;;;10311853;28;20658;-77
2023/09/09 06:48:58;;;;;;;1.35;1.05;;;;;;;;;;10300232;28;20632;-76
2023/09/09 06:53:59;;;;;;;1.05;1.02;;;;;;;;;;10320355;28;20229;-77
2023/09/09 06:59:00;;;;;;;0.50;0.50;;;;;;;;;;10298434;28;20637;-77
2023/09/09 07:04:01;;;;;;;2.25;1.90;;;;;;;;;;10304001;28;20296;-76
2023/09/09 07:09:02;;;;;;;0.40;0.40;;;;;;;;;;10302232;28;20243;-77
2023/09/09 07:14:03;;;;;;;3.53;1.13;;;;;;;;;;10303956;28;20223;-76
2023/09/09 07:19:04;;;;;;;1.55;0.75;;;;;;;;;;10306658;28;20220;-77
2023/09/09 07:24:05;;;;;;;1.50;1.38;;;;;;;;;;10275775;28;20794;-77
2023/09/09 07:29:06;;;;;;;12.07;1.13;;;;;;;;;;10298523;28;20619;-77
2023/09/09 07:34:08;;;;;;;0.60;0.60;;;;;;;;;;10308787;28;20319;-77
2023/09/09 07:39:10;;;;;;;1.83;0.65;;;;;;;;;;10279514;28;20999;-77
2023/09/09 07:44:11;;;;;;;0.55;0.55;;;;;;;;;;10309294;28;20268;-77
2023/09/09 07:49:13;;;;;;;3.22;1.45;;;;;;;;;;10316866;28;20852;-77
2023/09/09 07:54:14;;;;;;;2.28;0.95;;;;;;;;;;10307401;28;20216;-76
2023/09/09 07:59:15;;;;;;;2.65;2.28;;;;;;;;;;10301556;28;20220;-78
2023/09/09 08:04:16;;;;;;;1.30;1.05;;;;;;;;;;10313132;28;22677;-77
2023/09/09 08:09:18;;;;;;;1.17;0.55;;;;;;;;;;10298160;28;20224;-77
2023/09/09 08:14:19;;;;;;;1.50;1.40;;;;;;;;;;10292607;28;20266;-79
2023/09/09 08:19:20;;;;;;;0.63;0.57;;;;;;;;;;10315009;28;20287;-77
2023/09/09 08:24:21;;;;;;;1.83;0.50;;;;;;;;;;10308182;28;20295;-77
2023/09/09 08:29:23;;;;;;;1.17;1.17;;;;;;;;;;10290083;28;21887;-78
2023/09/09 08:34:24;;;;;;;2.22;0.90;;;;;;;;;;10293803;28;20212;-76
2023/09/09 08:39:25;;;;;;;1.45;0.65;;;;;;;;;;10297202;28;20308;-77
2023/09/09 08:44:31;;;;;;;1.55;0.88;;;;;;;;;;10295045;28;20231;-76
2023/09/09 08:49:34;;;;;;;2.38;1.00;;;;;;;;;;10312401;28;20244;-77
2023/09/09 08:54:35;;;;;;;0.70;0.70;;;;;;;;;;10314880;28;20212;-77
2023/09/09 08:59:38;;;;;;;0.50;0.50;;;;;;;;;;10315575;28;20251;-77
2023/09/09 09:04:40;;;;;;;1.48;0.65;;;;;;;;;;10288941;28;20229;-77
2023/09/09 09:09:41;;;;;;;0.20;0.20;;;;;;;;;;10312922;28;20204;-77
2023/09/09 09:14:46;;;;;;;1.80;0.85;;;;;;;;;;10297570;28;20747;-77
2023/09/09 09:19:47;;;;;;;0.40;0.40;;;;;;;;;;10286518;28;22236;-77
2023/09/09 09:24:49;;;;;;;0.63;0.63;;;;;;;;;;10311721;28;20813;-78
2023/09/09 09:29:50;;;;;;;3.53;0.60;;;;;;;;;;10308736;28;20227;-78
2023/09/09 09:34:51;;;;;;;1.98;0.57;;;;;;;;;;10297864;28;20212;-78
2023/09/09 09:39:52;;;;;;;1.98;0.77;;;;;;;;;;10301898;28;20208;-77
2023/09/09 09:45:07;;;;;;;0.30;0.30;;;;;;;;;;10304963;28;20201;-78
2023/09/09 09:50:08;;;;;;;0.25;0.25;;;;;;;;;;10261087;28;20221;-78
2023/09/09 09:55:16;;;;;;;0.10;0.10;;;;;;;;;;10273670;28;20289;-80
2023/09/09 10:00:18;;;;;;;0.30;0.30;;;;;;;;;;10332655;28;20749;-80
2023/09/09 10:05:20;;;;;;;0.35;0.35;;;;;;;;;;10344519;28;20733;-80
2023/09/09 10:10:26;;;;;;;0.10;0.10;;;;;;;;;;10333675;28;20211;-80
2023/09/09 10:15:28;;;;;;;0.08;0.08;;;;;;;;;;10319440;28;20240;-81
2023/09/09 10:20:29;;;;;;;0.20;0.20;;;;;;;;;;10324746;28;20264;-80
2023/09/09 10:25:31;;;;;;;0.20;0.20;;;;;;;;;;10338993;28;20236;-79
2023/09/09 10:30:35;;;;;;;0.13;0.13;;;;;;;;;;10333838;28;20661;-82
2023/09/09 10:35:37;;;;;;;0.10;0.10;;;;;;;;;;10318091;28;20220;-81
2023/09/09 10:40:39;;;;;;;0.20;0.20;;;;;;;;;;10330800;28;20373;-80
2023/09/09 10:45:41;;;;;;;0.20;0.20;;;;;;;;;;10315616;28;20252;-81
2023/09/09 10:50:50;;;;;;;0.20;0.20;;;;;;;;;;10311574;28;20216;-80
2023/09/09 10:55:53;;;;;;;0.00;0.00;;;;;;;;;;10321670;28;20220;-80
2023/09/09 11:00:54;;;;;;;0.08;0.08;;;;;;;;;;10323718;28;20293;-80
2023/09/09 11:05:59;;;;;;;0.00;0.00;;;;;;;;;;10319204;28;20217;-79
2023/09/09 11:11:07;;;;;;;0.17;0.17;;;;;;;;;;10312926;28;20208;-80
2023/09/09 11:16:22;;;;;;;0.00;0.00;;;;;;;;;;10304468;28;20946;-80
2023/09/09 11:21:24;;;;;;;0.00;0.00;;;;;;;;;;10315743;28;20238;-79
2023/09/09 11:26:25;;;;;;;0.00;0.00;;;;;;;;;;10320252;28;20220;-80
2023/09/09 11:31:26;;;;;;;0.10;0.10;;;;;;;;;;10334346;28;20748;-80
2023/09/09 11:36:28;;;;;;;0.20;0.20;;;;;;;;;;10295018;28;20213;-80
2023/09/09 11:41:29;;;;;;;0.13;0.13;;;;;;;;;;10299371;28;20212;-78
2023/09/09 11:46:32;;;;;;;0.10;0.10;;;;;;;;;;10288522;28;20220;-79
2023/09/09 11:51:34;;;;;;;0.00;0.00;;;;;;;;;;10303548;28;21403;-80
2023/09/09 11:56:36;;;;;;;0.00;0.00;;;;;;;;;;10312967;28;20251;-80
2023/09/09 12:01:44;;;;;;;0.10;0.10;;;;;;;;;;10293898;28;20283;-80
2023/09/09 12:06:47;;;;;;;0.08;0.08;;;;;;;;;;10309738;28;20232;-80
2023/09/09 12:11:48;;;;;;;0.10;0.10;;;;;;;;;;10287708;28;20528;-80
2023/09/09 12:16:49;;;;;;;0.10;0.10;;;;;;;;;;10323588;28;20227;-79
2023/09/09 12:21:50;;;;;;;0.10;0.10;;;;;;;;;;10319975;28;20209;-79
2023/09/09 12:26:52;;;;;;;0.10;0.10;;;;;;;;;;10319738;28;20208;-79
2023/09/09 12:31:54;;;;;;;0.30;0.30;;;;;;;;;;10304345;28;20216;-80
2023/09/09 12:36:56;;;;;;;0.25;0.25;;;;;;;;;;10320251;28;20902;-80
2023/09/09 12:42:04;;;;;;;0.20;0.20;;;;;;;;;;10319185;28;20208;-79
2023/09/09 12:47:05;;;;;;;0.00;0.00;;;;;;;;;;10321816;28;20216;-80
2023/09/09 12:52:06;;;;;;;0.25;0.17;;;;;;;;;;10318077;28;20215;-80
2023/09/09 12:57:07;;;;;;;0.15;0.15;;;;;;;;;;10290656;28;20263;-80
2023/09/09 13:02:08;;;;;;;0.00;0.00;;;;;;;;;;10290563;28;20703;-80
2023/09/09 13:07:10;;;;;;;0.10;0.10;;;;;;;;;;10323759;28;20299;-79
2023/09/09 13:12:11;;;;;;;0.10;0.10;;;;;;;;;;10291752;28;20216;-79
2023/09/09 13:17:12;;;;;;;0.10;0.10;;;;;;;;;;10326895;28;20229;-80
2023/09/09 13:22:13;;;;;;;0.00;0.00;;;;;;;;;;10308679;28;20965;-81
2023/09/09 13:27:14;;;;;;;0.20;0.10;;;;;;;;;;10290863;28;20247;-81
2023/09/09 13:32:15;;;;;;;0.10;0.10;;;;;;;;;;10273084;28;20809;-79
2023/09/09 13:37:17;;;;;;;0.10;0.10;;;;;;;;;;10291986;28;20335;-78
2023/09/09 13:42:18;;;;;;;0.10;0.10;;;;;;;;;;10295374;28;20241;-78
2023/09/09 13:47:19;;;;;;;0.10;0.10;;;;;;;;;;10329148;28;20310;-78
2023/09/09 13:52:20;;;;;;;0.10;0.10;;;;;;;;;;10298103;28;20656;-79
2023/09/09 13:57:21;;;;;;;0.08;0.08;;;;;;;;;;10341563;28;20230;-79
2023/09/09 14:02:23;;;;;;;0.10;0.10;;;;;;;;;;10309137;28;20670;-79
2023/09/09 14:07:24;;;;;;;0.15;0.15;;;;;;;;;;10289204;28;20768;-78
2023/09/09 14:12:25;;;;;;;0.08;0.08;;;;;;;;;;10313339;28;20212;-79
2023/09/09 14:17:26;;;;;;;0.10;0.10;;;;;;;;;;10301475;28;20220;-81
2023/09/09 14:22:27;;;;;;;0.10;0.10;;;;;;;;;;10323538;28;20270;-80
2023/09/09 14:27:28;;;;;;;0.00;0.00;;;;;;;;;;10349115;28;20212;-87
2023/09/09 14:32:29;;;;;;;0.10;0.10;;;;;;;;;;10362683;28;20302;-83
2023/09/09 14:37:31;;;;;;;0.08;0.08;;;;;;;;;;10303543;28;20215;-80
2023/09/09 14:42:32;;;;;;;0.10;0.10;;;;;;;;;;10328531;28;20315;-81
2023/09/09 14:47:33;;;;;;;0.08;0.08;;;;;;;;;;10323989;28;20216;-80
2023/09/09 14:52:34;;;;;;;0.20;0.20;;;;;;;;;;10312961;28;20708;-81
2023/09/09 14:57:35;;;;;;;0.10;0.10;;;;;;;;;;10337376;28;20243;-80
2023/09/09 15:02:36;;;;;;;0.25;0.25;;;;;;;;;;10285300;28;20215;-79
2023/09/09 15:07:38;;;;;;;0.00;0.00;;;;;;;;;;10300171;28;20324;-79
2023/09/09 15:12:39;;;;;;;0.20;0.20;;;;;;;;;;10310115;28;20247;-79
2023/09/09 15:17:40;;;;;;;0.15;0.15;;;;;;;;;;10275166;28;20216;-79
2023/09/09 15:22:42;;;;;;;0.03;0.03;;;;;;;;;;10310467;28;20227;-79
2023/09/09 15:27:43;;;;;;;0.00;0.00;;;;;;;;;;10318136;28;20212;-81
2023/09/09 15:32:44;;;;;;;0.00;0.00;;;;;;;;;;10299766;28;20240;-80
2023/09/09 15:37:46;;;;;;;0.10;0.10;;;;;;;;;;10302935;28;20691;-79
2023/09/09 15:42:47;;;;;;;2.05;0.13;;;;;;;;;;10311633;28;20239;-79
2023/09/09 15:47:48;;;;;;;0.00;0.00;;;;;;;;;;10326237;28;20225;-79
2023/09/09 15:52:49;;;;;;;0.20;0.20;;;;;;;;;;10315165;28;20220;-79
2023/09/09 15:57:50;;;;;;;0.00;0.00;;;;;;;;;;10320751;28;20235;-79
2023/09/09 16:02:51;;;;;;;0.10;0.10;;;;;;;;;;10314112;28;20720;-79
2023/09/09 16:07:52;;;;;;;0.10;0.10;;;;;;;;;;10313044;28;20307;-79
2023/09/09 16:12:53;;;;;;;0.00;0.00;;;;;;;;;;10318385;28;20746;-80
2023/09/09 16:17:54;;;;;;;0.00;0.00;;;;;;;;;;10305765;28;20220;-79
2023/09/09 16:22:55;;;;;;;0.20;0.20;;;;;;;;;;10290954;28;20267;-78
2023/09/09 16:27:56;;;;;;;0.00;0.00;;;;;;;;;;10331736;28;20231;-79
2023/09/09 16:32:57;;;;;;;0.10;0.10;;;;;;;;;;10293446;28;20239;-79
2023/09/09 16:37:59;;;;;;;0.10;0.10;;;;;;;;;;10315446;28;20314;-78
2023/09/09 16:43:00;;;;;;;0.10;0.10;;;;;;;;;;10315716;28;20243;-78
2023/09/09 16:48:04;;;;;;;0.00;0.00;;;;;;;;;;10331990;28;20306;-79
2023/09/09 16:53:07;;;;;;;0.13;0.13;;;;;;;;;;10330843;28;20227;-78
2023/09/09 16:58:08;;;;;;;0.00;0.00;;;;;;;;;;10334819;28;20220;-79
2023/09/09 17:03:09;;;;;;;0.20;0.20;;;;;;;;;;10294123;28;20288;-80
2023/09/09 17:08:10;;;;;;;0.38;0.38;;;;;;;;;;10330758;28;20224;-80
2023/09/09 17:13:11;;;;;;;0.65;0.10;;;;;;;;;;10315372;28;20224;-79
2023/09/09 17:18:13;;;;;;;0.47;0.47;;;;;;;;;;10318731;28;20223;-80
2023/09/09 17:23:14;;;;;;;0.52;0.52;;;;;;;;;;10326314;28;20204;-78
2023/09/09 17:28:15;;;;;;;0.25;0.25;;;;;;;;;;10316147;28;20702;-79
2023/09/09 17:33:16;;;;;;;0.73;0.63;;;;;;;;;;10311398;28;20845;-79
2023/09/09 17:38:17;;;;;;;0.30;0.30;;;;;;;;;;10328176;28;20240;-80
2023/09/09 17:43:18;;;;;;;1.90;1.17;;;;;;;;;;10307221;28;20233;-80
2023/09/09 17:48:19;;;;;;;1.60;1.60;;;;;;;;;;10325957;28;21599;-79
2023/09/09 17:53:20;;;;;;;1.25;1.25;;;;;;;;;;10313983;28;20698;-79
2023/09/09 17:58:21;;;;;;;1.25;1.25;;;;;;;;;;10321889;28;20216;-79
2023/09/09 18:03:22;;;;;;;0.88;0.88;;;;;;;;;;10311302;28;20212;-79
2023/09/09 18:08:23;;;;;;;0.45;0.45;;;;;;;;;;10309281;28;20231;-79
2023/09/09 18:13:24;;;;;;;0.50;0.50;;;;;;;;;;10314014;28;20258;-80
2023/09/09 18:18:25;;;;;;;0.45;0.45;;;;;;;;;;10311242;28;20219;-78
2023/09/09 18:23:26;;;;;;;1.45;1.35;;;;;;;;;;10299697;28;20219;-79
2023/09/09 18:28:28;;;;;;;1.35;0.82;;;;;;;;;;10303341;28;20236;-82
2023/09/09 18:33:29;;;;;;;0.73;0.73;;;;;;;;;;10331581;28;20217;-79
2023/09/09 18:38:31;;;;;;;0.50;0.50;;;;;;;;;;10316036;28;20758;-79
2023/09/09 18:43:32;;;;;;;0.35;0.35;;;;;;;;;;10332356;28;20223;-80
2023/09/09 18:48:33;;;;;;;0.68;0.43;;;;;;;;;;10328465;28;20232;-81
2023/09/09 18:53:35;;;;;;;1.70;1.60;;;;;;;;;;10326952;28;20213;-80
2023/09/09 18:58:36;;;;;;;3.28;0.80;;;;;;;;;;10308540;28;20227;-80
2023/09/09 19:03:37;;;;;;;0.80;0.80;;;;;;;;;;10317054;28;20315;-82
2023/09/09 19:08:38;;;;;;;0.63;0.63;;;;;;;;;;10319907;28;20223;-81
2023/09/09 19:13:39;;;;;;;1.65;0.55;;;;;;;;;;10306837;28;20229;-82
2023/09/09 19:18:40;;;;;;;0.35;0.35;;;;;;;;;;10306303;28;20220;-80
2023/09/09 19:23:41;;;;;;;2.28;1.75;;;;;;;;;;10313179;28;20271;-80
2023/09/09 19:28:42;;;;;;;1.65;1.17;;;;;;;;;;10318038;28;20226;-81
2023/09/09 19:33:43;;;;;;;1.02;0.73;;;;;;;;;;10304571;28;20221;-79
2023/09/09 19:38:44;;;;;;;1.52;0.73;;;;;;;;;;10302472;28;20224;-81
2023/09/09 19:43:45;;;;;;;1.45;1.33;;;;;;;;;;10311239;28;20683;-80
2023/09/09 19:48:46;;;;;;;0.47;0.47;;;;;;;;;;10290146;28;20211;-80
2023/09/09 19:53:47;;;;;;;1.15;1.15;;;;;;;;;;10288327;28;20807;-79
2023/09/09 19:58:48;;;;;;;1.63;1.17;;;;;;;;;;10300786;28;20270;-79
2023/09/09 20:03:49;;;;;;;0.75;0.75;;;;;;;;;;10309298;28;20752;-80
2023/09/09 20:08:50;;;;;;;1.45;1.33;;;;;;;;;;10306455;28;20228;-78
2023/09/09 20:13:51;;;;;;;1.42;1.33;;;;;;;;;;10287747;28;20479;-80
2023/09/09 20:18:52;;;;;;;6.43;1.48;;;;;;;;;;10316904;28;20685;-78
2023/09/09 20:23:53;;;;;;;0.63;0.63;;;;;;;;;;10287300;28;20211;-80
2023/09/09 20:28:54;;;;;;;0.38;0.38;;;;;;;;;;10307366;28;20208;-78
2023/09/09 20:33:55;;;;;;;0.82;0.82;;;;;;;;;;10291678;28;20208;-81
2023/09/09 20:38:57;;;;;;;0.98;0.98;;;;;;;;;;10308843;28;20223;-79
2023/09/09 20:43:58;;;;;;;0.65;0.65;;;;;;;;;;10307320;28;20308;-80
2023/09/09 20:48:59;;;;;;;0.10;0.10;;;;;;;;;;10291590;28;20220;-79
2023/09/09 20:54:00;;;;;;;1.40;0.55;;;;;;;;;;10345079;28;20239;-78
2023/09/09 20:59:02;;;;;;;2.00;0.57;;;;;;;;;;10315756;28;20812;-77
2023/09/09 21:04:04;;;;;;;1.55;0.93;;;;;;;;;;10319943;28;20215;-79
2023/09/09 21:09:05;;;;;;;0.90;0.90;;;;;;;;;;10295760;28;20626;-78
2023/09/09 21:14:06;;;;;;;0.55;0.55;;;;;;;;;;10325444;28;20247;-78
2023/09/09 21:19:07;;;;;;;2.38;0.85;;;;;;;;;;10304805;28;21211;-79
2023/09/09 21:24:08;;;;;;;0.40;0.40;;;;;;;;;;10301316;28;20252;-78
2023/09/09 21:29:09;;;;;;;1.05;1.05;;;;;;;;;;10309095;28;21267;-77
2023/09/09 21:34:10;;;;;;;0.68;0.50;;;;;;;;;;10295475;28;20274;-79
2023/09/09 21:39:11;;;;;;;0.80;0.80;;;;;;;;;;10296946;28;20310;-78
2023/09/09 21:44:13;;;;;;;0.57;0.57;;;;;;;;;;10304670;28;20216;-78
2023/09/09 21:49:14;;;;;;;0.82;0.82;;;;;;;;;;10271561;28;20315;-79
2023/09/09 21:54:15;;;;;;;1.40;1.35;;;;;;;;;;10243307;28;20269;-77
2023/09/09 21:59:16;;;;;;;0.50;0.45;;;;;;;;;;10276033;28;20630;-77
2023/09/09 22:04:17;;;;;;;0.98;0.98;;;;;;;;;;10294029;28;20224;-78
2023/09/09 22:09:20;;;;;;;0.40;0.40;;;;;;;;;;10282231;28;20255;-77
2023/09/09 22:14:22;;;;;;;0.60;0.60;;;;;;;;;;10280285;28;20319;-77
2023/09/09 22:19:23;;;;;;;0.55;0.55;;;;;;;;;;10258087;28;20220;-78
2023/09/09 22:24:24;;;;;;;0.35;0.35;;;;;;;;;;10292478;28;20726;-80
2023/09/09 22:29:25;;;;;;;0.65;0.65;;;;;;;;;;10288849;28;20216;-78
2023/09/09 22:34:26;;;;;;;1.02;0.40;;;;;;;;;;10273864;28;20776;-77
2023/09/09 22:39:27;;;;;;;0.47;0.22;;;;;;;;;;10253813;28;20271;-78
2023/09/09 22:44:28;;;;;;;1.00;1.00;;;;;;;;;;10280588;28;20209;-78
2023/09/09 22:49:29;;;;;;;2.30;0.52;;;;;;;;;;10291502;28;20221;-79
2023/09/09 22:54:30;;;;;;;0.63;0.63;;;;;;;;;;10295302;28;20256;-77
2023/09/09 22:59:32;;;;;;;0.47;0.30;;;;;;;;;;10260651;28;20621;-78
2023/09/09 23:04:33;;;;;;;0.52;0.52;;;;;;;;;;10265280;28;20268;-77
2023/09/09 23:09:35;;;;;;;0.47;0.47;;;;;;;;;;10303020;28;20653;-77
2023/09/09 23:14:36;;;;;;;0.88;0.88;;;;;;;;;;10278456;28;20906;-76
2023/09/09 23:19:37;;;;;;;1.65;0.90;;;;;;;;;;10277602;28;20213;-77
2023/09/09 23:24:42;;;;;;;0.55;0.55;;;;;;;;;;10273791;28;20221;-78
2023/09/09 23:29:43;;;;;;;0.50;0.50;;;;;;;;;;10297231;28;20217;-78
2023/09/09 23:34:44;;;;;;;0.32;0.32;;;;;;;;;;10292110;28;20245;-75
2023/09/09 23:39:46;;;;;;;1.10;1.10;;;;;;;;;;10274467;28;20220;-78
2023/09/09 23:44:47;;;;;;;2.40;1.70;;;;;;;;;;10289706;28;20221;-76
2023/09/09 23:49:48;;;;;;;1.65;0.40;;;;;;;;;;10275285;28;20673;-77
2023/09/09 23:54:49;;;;;;;0.65;0.40;;;;;;;;;;10244172;28;20263;-75
2023/09/09 23:59:50;;;;;;;0.17;0.17;;;;;;;;;;10280168;28;20228;-79
